Cincinnati, Ohio
Traffic Map
Current Weather Conditions
Cincinnati, Ohio
Overcast
Overcast
54°
Feels Like: 54°
Wind Chill: 54° Ceiling: 10000
Heat Index: 54° Visibility: 10mi
Dew Point: 53° Wind: 3mph
Humidity: 97% Direction: 290° (WNW)
Pressure: 29.64in Gusts: 0mph
Raw Report DataKLUK 220153Z 29003KT 10SM OVC100 12/12 A2964 RMK AO2 SLP039 T01220117
Traffic Incident Summary
Active as of:
Severity:
Category:
InformationThere was an issue retrieving the traffic information for this location. Please try a different location or try again shortly.
Advertisements
Track Severe Weather on mobile